sensor_id;sensor_type;location;lat;lon;timestamp;pressure;altitude;pressure_sealevel;temperature;humidity
66381;BME280;53177;52.648;1.214;2023-04-01T00:00:19;99128.94;;;7.22;100.00
66381;BME280;53177;52.648;1.214;2023-04-01T00:02:45;99134.09;;;7.25;100.00
66381;BME280;53177;52.648;1.214;2023-04-01T00:05:12;99137.72;;;7.21;100.00
66381;BME280;53177;52.648;1.214;2023-04-01T00:07:38;99141.97;;;7.25;100.00
66381;BME280;53177;52.648;1.214;2023-04-01T00:10:08;99144.75;;;7.21;100.00
66381;BME280;53177;52.648;1.214;2023-04-01T00:12:34;99146.44;;;7.23;100.00
66381;BME280;53177;52.648;1.214;2023-04-01T00:15:00;99162.38;;;7.19;100.00
66381;BME280;53177;52.648;1.214;2023-04-01T00:17:26;99156.22;;;7.20;100.00
66381;BME280;53177;52.648;1.214;2023-04-01T00:19:54;99153.72;;;7.15;100.00
66381;BME280;53177;52.648;1.214;2023-04-01T00:22:20;99161.53;;;7.17;100.00
66381;BME280;53177;52.648;1.214;2023-04-01T00:24:45;99166.91;;;7.14;100.00
66381;BME280;53177;52.648;1.214;2023-04-01T00:27:11;99165.22;;;7.13;100.00
66381;BME280;53177;52.648;1.214;2023-04-01T00:29:37;99164.25;;;7.15;100.00
66381;BME280;53177;52.648;1.214;2023-04-01T00:32:02;99172.13;;;7.15;100.00
66381;BME280;53177;52.648;1.214;2023-04-01T00:34:28;99180.22;;;7.09;100.00
66381;BME280;53177;52.648;1.214;2023-04-01T00:36:53;99187.25;;;7.09;100.00
66381;BME280;53177;52.648;1.214;2023-04-01T00:39:20;99184.41;;;7.15;100.00
66381;BME280;53177;52.648;1.214;2023-04-01T00:41:46;99188.16;;;7.08;100.00
66381;BME280;53177;52.648;1.214;2023-04-01T00:44:18;99196.75;;;7.13;100.00
66381;BME280;53177;52.648;1.214;2023-04-01T00:46:44;99202.00;;;7.13;100.00
66381;BME280;53177;52.648;1.214;2023-04-01T00:49:09;99197.75;;;7.09;100.00
66381;BME280;53177;52.648;1.214;2023-04-01T00:51:36;99194.28;;;7.08;100.00
66381;BME280;53177;52.648;1.214;2023-04-01T00:54:04;99206.41;;;7.12;100.00
66381;BME280;53177;52.648;1.214;2023-04-01T00:56:35;99205.69;;;7.07;100.00
66381;BME280;53177;52.648;1.214;2023-04-01T00:59:06;99211.06;;;7.04;100.00
66381;BME280;53177;52.648;1.214;2023-04-01T01:01:34;99218.09;;;7.02;100.00
66381;BME280;53177;52.648;1.214;2023-04-01T01:04:00;99221.56;;;7.04;100.00
66381;BME280;53177;52.648;1.214;2023-04-01T01:11:42;99229.34;;;7.07;100.00
66381;BME280;53177;52.648;1.214;2023-04-01T01:16:48;99233.13;;;6.99;100.00
66381;BME280;53177;52.648;1.214;2023-04-01T01:19:51;99241.81;;;7.01;100.00
66381;BME280;53177;52.648;1.214;2023-04-01T01:27:38;99255.88;;;7.00;100.00
66381;BME280;53177;52.648;1.214;2023-04-01T01:30:12;99260.25;;;6.99;100.00
66381;BME280;53177;52.648;1.214;2023-04-01T01:35:38;99262.13;;;6.96;100.00
66381;BME280;53177;52.648;1.214;2023-04-01T01:38:10;99268.25;;;6.96;100.00
66381;BME280;53177;52.648;1.214;2023-04-01T01:40:39;99268.34;;;6.93;100.00
66381;BME280;53177;52.648;1.214;2023-04-01T01:43:09;99280.66;;;6.91;100.00
66381;BME280;53177;52.648;1.214;2023-04-01T01:45:40;99277.22;;;6.89;100.00
66381;BME280;53177;52.648;1.214;2023-04-01T01:48:09;99285.06;;;6.91;100.00
66381;BME280;53177;52.648;1.214;2023-04-01T01:50:36;99282.63;;;6.84;100.00
66381;BME280;53177;52.648;1.214;2023-04-01T01:53:08;99278.09;;;6.90;100.00
66381;BME280;53177;52.648;1.214;2023-04-01T01:55:37;99279.00;;;6.89;100.00
66381;BME280;53177;52.648;1.214;2023-04-01T01:58:25;99282.53;;;6.88;100.00
66381;BME280;53177;52.648;1.214;2023-04-01T02:00:58;99280.75;;;6.88;100.00
66381;BME280;53177;52.648;1.214;2023-04-01T02:03:27;99297.28;;;6.92;100.00
66381;BME280;53177;52.648;1.214;2023-04-01T02:05:56;99299.97;;;6.90;100.00
66381;BME280;53177;52.648;1.214;2023-04-01T02:08:33;99308.03;;;6.84;100.00
66381;BME280;53177;52.648;1.214;2023-04-01T02:11:07;99308.91;;;6.84;100.00
66381;BME280;53177;52.648;1.214;2023-04-01T02:13:52;99318.50;;;6.85;100.00
66381;BME280;53177;52.648;1.214;2023-04-01T02:16:23;99316.75;;;6.86;100.00
66381;BME280;53177;52.648;1.214;2023-04-01T02:18:51;99317.72;;;6.83;100.00
66381;BME280;53177;52.648;1.214;2023-04-01T02:21:20;99315.84;;;6.87;100.00
66381;BME280;53177;52.648;1.214;2023-04-01T02:23:49;99330.75;;;6.87;100.00
66381;BME280;53177;52.648;1.214;2023-04-01T02:26:16;99341.16;;;6.90;100.00
66381;BME280;53177;52.648;1.214;2023-04-01T02:28:42;99336.03;;;6.85;100.00
66381;BME280;53177;52.648;1.214;2023-04-01T02:31:10;99340.31;;;6.88;100.00
66381;BME280;53177;52.648;1.214;2023-04-01T02:33:38;99340.19;;;6.92;100.00
66381;BME280;53177;52.648;1.214;2023-04-01T02:36:04;99352.66;;;6.85;100.00
66381;BME280;53177;52.648;1.214;2023-04-01T02:38:30;99349.03;;;6.90;100.00
66381;BME280;53177;52.648;1.214;2023-04-01T02:40:59;99363.16;;;6.85;100.00
66381;BME280;53177;52.648;1.214;2023-04-01T02:43:24;99361.53;;;6.81;100.00
66381;BME280;53177;52.648;1.214;2023-04-01T02:45:49;99364.84;;;6.88;100.00
66381;BME280;53177;52.648;1.214;2023-04-01T02:48:15;99361.41;;;6.86;100.00
66381;BME280;53177;52.648;1.214;2023-04-01T02:50:40;99359.88;;;6.79;100.00
66381;BME280;53177;52.648;1.214;2023-04-01T02:53:06;99363.19;;;6.84;100.00
66381;BME280;53177;52.648;1.214;2023-04-01T02:55:32;99369.28;;;6.86;100.00
66381;BME280;53177;52.648;1.214;2023-04-01T02:57:58;99368.41;;;6.87;100.00
66381;BME280;53177;52.648;1.214;2023-04-01T03:00:24;99376.22;;;6.89;100.00
66381;BME280;53177;52.648;1.214;2023-04-01T03:02:49;99379.03;;;6.82;100.00
66381;BME280;53177;52.648;1.214;2023-04-01T03:05:15;99385.16;;;6.83;100.00
66381;BME280;53177;52.648;1.214;2023-04-01T03:07:40;99387.84;;;6.80;100.00
66381;BME280;53177;52.648;1.214;2023-04-01T03:10:06;99395.56;;;6.86;100.00
66381;BME280;53177;52.648;1.214;2023-04-01T03:12:32;99395.72;;;6.80;100.00
66381;BME280;53177;52.648;1.214;2023-04-01T03:14:57;99400.97;;;6.80;100.00
66381;BME280;53177;52.648;1.214;2023-04-01T03:17:23;99401.94;;;6.77;100.00
66381;BME280;53177;52.648;1.214;2023-04-01T03:19:48;99413.28;;;6.79;100.00
66381;BME280;53177;52.648;1.214;2023-04-01T03:22:13;99413.28;;;6.79;100.00
66381;BME280;53177;52.648;1.214;2023-04-01T03:24:39;99418.66;;;6.75;100.00
66381;BME280;53177;52.648;1.214;2023-04-01T03:27:05;99414.28;;;6.74;100.00
66381;BME280;53177;52.648;1.214;2023-04-01T03:29:30;99419.47;;;6.77;100.00
66381;BME280;53177;52.648;1.214;2023-04-01T03:31:55;99427.31;;;6.78;100.00
66381;BME280;53177;52.648;1.214;2023-04-01T03:34:23;99436.16;;;6.76;100.00
66381;BME280;53177;52.648;1.214;2023-04-01T03:36:49;99441.53;;;6.71;100.00
66381;BME280;53177;52.648;1.214;2023-04-01T03:39:14;99437.75;;;6.80;100.00
66381;BME280;53177;52.648;1.214;2023-04-01T03:41:43;99439.78;;;6.70;100.00
66381;BME280;53177;52.648;1.214;2023-04-01T03:44:09;99445.63;;;6.80;100.00
66381;BME280;53177;52.648;1.214;2023-04-01T03:46:34;99443.19;;;6.74;100.00
66381;BME280;53177;52.648;1.214;2023-04-01T03:49:00;99456.34;;;6.74;100.00
66381;BME280;53177;52.648;1.214;2023-04-01T03:51:25;99459.78;;;6.76;100.00
66381;BME280;53177;52.648;1.214;2023-04-01T03:53:50;99455.56;;;6.70;100.00
66381;BME280;53177;52.648;1.214;2023-04-01T03:56:16;99463.34;;;6.73;100.00
66381;BME280;53177;52.648;1.214;2023-04-01T03:58:41;99466.94;;;6.71;100.00
66381;BME280;53177;52.648;1.214;2023-04-01T04:01:17;99455.66;;;6.67;100.00
66381;BME280;53177;52.648;1.214;2023-04-01T04:03:44;99474.94;;;6.66;100.00
66381;BME280;53177;52.648;1.214;2023-04-01T04:06:11;99475.81;;;6.65;100.00
66381;BME280;53177;52.648;1.214;2023-04-01T04:08:37;99478.41;;;6.67;100.00
66381;BME280;53177;52.648;1.214;2023-04-01T04:11:03;99481.13;;;6.64;100.00
66381;BME280;53177;52.648;1.214;2023-04-01T04:13:28;99486.47;;;6.61;100.00
66381;BME280;53177;52.648;1.214;2023-04-01T04:15:54;99490.75;;;6.65;100.00
66381;BME280;53177;52.648;1.214;2023-04-01T04:18:20;99485.59;;;6.60;100.00
66381;BME280;53177;52.648;1.214;2023-04-01T04:20:46;99497.84;;;6.61;100.00
66381;BME280;53177;52.648;1.214;2023-04-01T04:23:16;99497.00;;;6.59;100.00
66381;BME280;53177;52.648;1.214;2023-04-01T04:26:02;99499.53;;;6.62;100.00
66381;BME280;53177;52.648;1.214;2023-04-01T04:28:29;99506.41;;;6.68;100.00
66381;BME280;53177;52.648;1.214;2023-04-01T04:30:54;99506.56;;;6.62;100.00
66381;BME280;53177;52.648;1.214;2023-04-01T04:33:21;99508.25;;;6.64;100.00
66381;BME280;53177;52.648;1.214;2023-04-01T04:35:47;99507.63;;;6.55;100.00
66381;BME280;53177;52.648;1.214;2023-04-01T04:38:13;99516.44;;;6.54;100.00
66381;BME280;53177;52.648;1.214;2023-04-01T04:40:39;99521.63;;;6.55;100.00
66381;BME280;53177;52.648;1.214;2023-04-01T04:43:05;99521.63;;;6.55;100.00
66381;BME280;53177;52.648;1.214;2023-04-01T04:45:31;99528.53;;;6.58;100.00
66381;BME280;53177;52.648;1.214;2023-04-01T04:47:57;99528.72;;;6.52;100.00
66381;BME280;53177;52.648;1.214;2023-04-01T04:50:24;99532.19;;;6.54;100.00
66381;BME280;53177;52.648;1.214;2023-04-01T04:52:51;99533.94;;;6.53;100.00
66381;BME280;53177;52.648;1.214;2023-04-01T04:55:16;99538.31;;;6.53;100.00
66381;BME280;53177;52.648;1.214;2023-04-01T04:57:41;99547.19;;;6.49;100.00
66381;BME280;53177;52.648;1.214;2023-04-01T05:00:07;99548.00;;;6.51;100.00
66381;BME280;53177;52.648;1.214;2023-04-01T05:02:33;99554.25;;;6.47;100.00
66381;BME280;53177;52.648;1.214;2023-04-01T05:04:59;99555.88;;;6.51;100.00
66381;BME280;53177;52.648;1.214;2023-04-01T05:07:25;99556.81;;;6.48;100.00
66381;BME280;53177;52.648;1.214;2023-04-01T05:09:50;99569.94;;;6.48;100.00
66381;BME280;53177;52.648;1.214;2023-04-01T05:12:16;99574.44;;;6.43;100.00
66381;BME280;53177;52.648;1.214;2023-04-01T05:14:43;99572.66;;;6.45;100.00
66381;BME280;53177;52.648;1.214;2023-04-01T05:17:13;99570.06;;;6.44;100.00
66381;BME280;53177;52.648;1.214;2023-04-01T05:19:42;99580.50;;;6.47;100.00
66381;BME280;53177;52.648;1.214;2023-04-01T05:22:09;99585.81;;;6.44;100.00
66381;BME280;53177;52.648;1.214;2023-04-01T05:24:35;99584.13;;;6.41;100.00
66381;BME280;53177;52.648;1.214;2023-04-01T05:27:00;99586.66;;;6.46;100.00
66381;BME280;53177;52.648;1.214;2023-04-01T05:29:26;99584.06;;;6.44;100.00
66381;BME280;53177;52.648;1.214;2023-04-01T05:31:51;99585.00;;;6.42;100.00
66381;BME280;53177;52.648;1.214;2023-04-01T05:34:17;99595.59;;;6.39;100.00
66381;BME280;53177;52.648;1.214;2023-04-01T05:36:43;99601.75;;;6.36;100.00
66381;BME280;53177;52.648;1.214;2023-04-01T05:39:09;99607.06;;;6.33;100.00
66381;BME280;53177;52.648;1.214;2023-04-01T05:41:35;99603.63;;;6.31;100.00
66381;BME280;53177;52.648;1.214;2023-04-01T05:44:01;99606.19;;;6.34;100.00
66381;BME280;53177;52.648;1.214;2023-04-01T05:46:26;99617.63;;;6.31;100.00
66381;BME280;53177;52.648;1.214;2023-04-01T05:48:52;99615.91;;;6.30;100.00
66381;BME280;53177;52.648;1.214;2023-04-01T05:51:17;99620.25;;;6.31;100.00
66381;BME280;53177;52.648;1.214;2023-04-01T05:53:42;99620.28;;;6.30;100.00
66381;BME280;53177;52.648;1.214;2023-04-01T05:56:08;99624.72;;;6.26;100.00
66381;BME280;53177;52.648;1.214;2023-04-01T05:58:35;99633.38;;;6.31;100.00
66381;BME280;53177;52.648;1.214;2023-04-01T06:01:09;99630.78;;;6.30;100.00
66381;BME280;53177;52.648;1.214;2023-04-01T06:03:35;99633.31;;;6.33;100.00
66381;BME280;53177;52.648;1.214;2023-04-01T06:06:01;99641.09;;;6.38;100.00
66381;BME280;53177;52.648;1.214;2023-04-01T06:08:27;99643.75;;;6.36;100.00
66381;BME280;53177;52.648;1.214;2023-04-01T06:17:18;99649.16;;;6.30;100.00
66381;BME280;53177;52.648;1.214;2023-04-01T06:30:47;99669.28;;;6.29;100.00
66381;BME280;53177;52.648;1.214;2023-04-01T06:41:28;99674.69;;;6.23;100.00
66381;BME280;53177;52.648;1.214;2023-04-01T06:52:26;99696.38;;;6.31;100.00
66381;BME280;53177;52.648;1.214;2023-04-01T06:55:12;99696.47;;;6.27;100.00
66381;BME280;53177;52.648;1.214;2023-04-01T06:57:46;99694.59;;;6.32;100.00
66381;BME280;53177;52.648;1.214;2023-04-01T07:00:40;99702.47;;;6.33;100.00
66381;BME280;53177;52.648;1.214;2023-04-01T07:03:21;99710.34;;;6.32;100.00
66381;BME280;53177;52.648;1.214;2023-04-01T07:05:48;99712.94;;;6.35;100.00
66381;BME280;53177;52.648;1.214;2023-04-01T07:08:25;99712.09;;;6.33;100.00
66381;BME280;53177;52.648;1.214;2023-04-01T07:10:56;99708.56;;;6.34;100.00
66381;BME280;53177;52.648;1.214;2023-04-01T07:13:39;99724.31;;;6.35;100.00
66381;BME280;53177;52.648;1.214;2023-04-01T07:16:16;99715.59;;;6.33;100.00
66381;BME280;53177;52.648;1.214;2023-04-01T07:18:47;99726.88;;;6.37;100.00
66381;BME280;53177;52.648;1.214;2023-04-01T07:21:29;99726.94;;;6.35;100.00
66381;BME280;53177;52.648;1.214;2023-04-01T07:24:01;99739.13;;;6.38;100.00
66381;BME280;53177;52.648;1.214;2023-04-01T07:26:28;99727.75;;;6.38;100.00
66381;BME280;53177;52.648;1.214;2023-04-01T07:28:54;99733.81;;;6.40;100.00
66381;BME280;53177;52.648;1.214;2023-04-01T07:31:45;99739.94;;;6.40;100.00
66381;BME280;53177;52.648;1.214;2023-04-01T07:34:31;99736.41;;;6.43;100.00
66381;BME280;53177;52.648;1.214;2023-04-01T07:37:15;99745.25;;;6.39;100.00
66381;BME280;53177;52.648;1.214;2023-04-01T07:50:56;99772.22;;;6.47;100.00
66381;BME280;53177;52.648;1.214;2023-04-01T07:53:29;99764.25;;;6.50;100.00
66381;BME280;53177;52.648;1.214;2023-04-01T07:56:11;99777.31;;;6.53;100.00
66381;BME280;53177;52.648;1.214;2023-04-01T08:01:49;99776.47;;;6.51;100.00
66381;BME280;53177;52.648;1.214;2023-04-01T08:04:37;99782.56;;;6.53;100.00
66381;BME280;53177;52.648;1.214;2023-04-01T08:07:16;99785.19;;;6.53;100.00
66381;BME280;53177;52.648;1.214;2023-04-01T08:15:47;99797.22;;;6.63;100.00
66381;BME280;53177;52.648;1.214;2023-04-01T08:21:21;99797.94;;;6.71;100.00
66381;BME280;53177;52.648;1.214;2023-04-01T08:23:49;99804.94;;;6.72;100.00
66381;BME280;53177;52.648;1.214;2023-04-01T08:28:57;99814.56;;;6.71;100.00
66381;BME280;53177;52.648;1.214;2023-04-01T08:31:58;99818.97;;;6.69;100.00
66381;BME280;53177;52.648;1.214;2023-04-01T08:34:30;99814.63;;;6.68;100.00
66381;BME280;53177;52.648;1.214;2023-04-01T08:37:03;99825.97;;;6.70;100.00
66381;BME280;53177;52.648;1.214;2023-04-01T08:40:00;99824.38;;;6.62;100.00
66381;BME280;53177;52.648;1.214;2023-04-01T08:42:52;99839.16;;;6.67;100.00
66381;BME280;53177;52.648;1.214;2023-04-01T08:45:30;99836.47;;;6.70;100.00
66381;BME280;53177;52.648;1.214;2023-04-01T08:53:22;99845.06;;;6.78;100.00
66381;BME280;53177;52.648;1.214;2023-04-01T08:56:05;99844.22;;;6.76;100.00
66381;BME280;53177;52.648;1.214;2023-04-01T09:09:58;99860.03;;;6.73;100.00
66381;BME280;53177;52.648;1.214;2023-04-01T09:18:24;99869.56;;;6.79;100.00
66381;BME280;53177;52.648;1.214;2023-04-01T09:24:24;99883.50;;;6.82;100.00
66381;BME280;53177;52.648;1.214;2023-04-01T09:27:18;99889.56;;;6.86;100.00
66381;BME280;53177;52.648;1.214;2023-04-01T09:41:32;99897.47;;;6.84;100.00
66381;BME280;53177;52.648;1.214;2023-04-01T09:44:03;99902.78;;;6.83;100.00
66381;BME280;53177;52.648;1.214;2023-04-01T09:46:51;99901.09;;;6.79;100.00
66381;BME280;53177;52.648;1.214;2023-04-01T09:49:47;99906.22;;;6.87;100.00
66381;BME280;53177;52.648;1.214;2023-04-01T09:52:31;99914.03;;;6.88;100.00
66381;BME280;53177;52.648;1.214;2023-04-01T10:07:14;99928.09;;;6.87;100.00
66381;BME280;53177;52.648;1.214;2023-04-01T10:32:38;99966.59;;;6.88;100.00
66381;BME280;53177;52.648;1.214;2023-04-01T10:35:27;99963.94;;;6.90;100.00
66381;BME280;53177;52.648;1.214;2023-04-01T10:41:23;99982.38;;;6.88;100.00
66381;BME280;53177;52.648;1.214;2023-04-01T11:01:08;99995.50;;;6.88;100.00
66381;BME280;53177;52.648;1.214;2023-04-01T11:14:37;100018.56;;;7.18;100.00
66381;BME280;53177;52.648;1.214;2023-04-01T11:17:20;100017.19;;;7.01;100.00
66381;BME280;53177;52.648;1.214;2023-04-01T11:23:10;100025.88;;;7.04;100.00
66381;BME280;53177;52.648;1.214;2023-04-01T11:33:44;100027.81;;;6.95;100.00
66381;BME280;53177;52.648;1.214;2023-04-01T11:36:23;100042.56;;;7.02;100.00
66381;BME280;53177;52.648;1.214;2023-04-01T11:39:00;100034.63;;;7.05;100.00
66381;BME280;53177;52.648;1.214;2023-04-01T11:41:34;100049.50;;;7.06;100.00
66381;BME280;53177;52.648;1.214;2023-04-01T11:44:20;100053.94;;;7.02;100.00
66381;BME280;53177;52.648;1.214;2023-04-01T11:47:01;100062.69;;;7.03;100.00
66381;BME280;53177;52.648;1.214;2023-04-01T11:49:51;100068.88;;;7.02;100.00
66381;BME280;53177;52.648;1.214;2023-04-01T11:58:37;100081.13;;;7.01;100.00
66381;BME280;53177;52.648;1.214;2023-04-01T12:06:52;100096.81;;;7.06;100.00
66381;BME280;53177;52.648;1.214;2023-04-01T12:09:31;100099.63;;;6.95;100.00
66381;BME280;53177;52.648;1.214;2023-04-01T12:12:35;100101.34;;;6.98;100.00
66381;BME280;53177;52.648;1.214;2023-04-01T12:18:00;100104.94;;;6.94;100.00
66381;BME280;53177;52.648;1.214;2023-04-01T12:20:49;100110.94;;;7.00;100.00
66381;BME280;53177;52.648;1.214;2023-04-01T12:26:00;100121.97;;;7.20;100.00
66381;BME280;53177;52.648;1.214;2023-04-01T12:28:37;100125.78;;;7.03;100.00
66381;BME280;53177;52.648;1.214;2023-04-01T12:31:30;100134.44;;;7.09;100.00
66381;BME280;53177;52.648;1.214;2023-04-01T12:41:58;100151.03;;;7.13;100.00
66381;BME280;53177;52.648;1.214;2023-04-01T12:47:20;100157.00;;;7.21;100.00
66381;BME280;53177;52.648;1.214;2023-04-01T12:52:51;100169.97;;;7.30;100.00
66381;BME280;53177;52.648;1.214;2023-04-01T12:55:44;100169.97;;;7.31;100.00
66381;BME280;53177;52.648;1.214;2023-04-01T12:58:31;100173.72;;;7.17;100.00
66381;BME280;53177;52.648;1.214;2023-04-01T13:12:27;100199.19;;;7.13;100.00
66381;BME280;53177;52.648;1.214;2023-04-01T13:23:19;100216.75;;;7.13;100.00
66381;BME280;53177;52.648;1.214;2023-04-01T13:28:43;100217.34;;;7.28;100.00
66381;BME280;53177;52.648;1.214;2023-04-01T13:42:59;100247.53;;;7.57;99.88
66381;BME280;53177;52.648;1.214;2023-04-01T13:45:35;100249.22;;;7.61;99.13
66381;BME280;53177;52.648;1.214;2023-04-01T13:56:18;100269.16;;;7.23;98.58
66381;BME280;53177;52.648;1.214;2023-04-01T13:59:27;100271.69;;;7.28;99.01
66381;BME280;53177;52.648;1.214;2023-04-01T14:04:56;100278.69;;;7.29;99.43
66381;BME280;53177;52.648;1.214;2023-04-01T14:13:02;100289.97;;;7.86;98.61
66381;BME280;53177;52.648;1.214;2023-04-01T14:18:46;100283.50;;;8.04;96.75
66381;BME280;53177;52.648;1.214;2023-04-01T14:21:32;100301.03;;;8.05;96.21
66381;BME280;53177;52.648;1.214;2023-04-01T14:24:08;100297.91;;;7.84;94.19
66381;BME280;53177;52.648;1.214;2023-04-01T14:32:24;100312.50;;;7.53;93.98
66381;BME280;53177;52.648;1.214;2023-04-01T14:40:28;100333.03;;;7.30;96.95
66381;BME280;53177;52.648;1.214;2023-04-01T14:48:34;100344.50;;;7.26;99.82
66381;BME280;53177;52.648;1.214;2023-04-01T14:51:20;100351.50;;;7.27;100.00
66381;BME280;53177;52.648;1.214;2023-04-01T14:54:13;100364.16;;;6.99;100.00
66381;BME280;53177;52.648;1.214;2023-04-01T14:56:49;100364.22;;;6.98;100.00
66381;BME280;53177;52.648;1.214;2023-04-01T15:02:08;100369.41;;;6.99;100.00
66381;BME280;53177;52.648;1.214;2023-04-01T15:15:20;100388.50;;;7.13;100.00
66381;BME280;53177;52.648;1.214;2023-04-01T15:39:35;100429.41;;;7.34;100.00
66381;BME280;53177;52.648;1.214;2023-04-01T15:42:15;100435.91;;;7.09;100.00
66381;BME280;53177;52.648;1.214;2023-04-01T15:52:40;100463.16;;;7.02;100.00
66381;BME280;53177;52.648;1.214;2023-04-01T15:55:27;100476.31;;;6.99;100.00
66381;BME280;53177;52.648;1.214;2023-04-01T16:00:30;100479.78;;;7.02;100.00
66381;BME280;53177;52.648;1.214;2023-04-01T16:03:19;100477.28;;;6.93;100.00
66381;BME280;53177;52.648;1.214;2023-04-01T16:09:02;100496.53;;;6.97;100.00
66381;BME280;53177;52.648;1.214;2023-04-01T16:25:07;100527.22;;;6.93;100.00
66381;BME280;53177;52.648;1.214;2023-04-01T16:27:54;100529.94;;;6.85;100.00
66381;BME280;53177;52.648;1.214;2023-04-01T16:30:38;100535.16;;;6.90;100.00
66381;BME280;53177;52.648;1.214;2023-04-01T16:33:14;100533.56;;;6.74;100.00
66381;BME280;53177;52.648;1.214;2023-04-01T16:36:09;100538.81;;;6.74;100.00
66381;BME280;53177;52.648;1.214;2023-04-01T16:38:49;100549.44;;;6.65;100.00
66381;BME280;53177;52.648;1.214;2023-04-01T16:41:20;100559.88;;;6.71;100.00
66381;BME280;53177;52.648;1.214;2023-04-01T16:43:51;100558.22;;;6.58;100.00
66381;BME280;53177;52.648;1.214;2023-04-01T16:54:31;100581.97;;;6.50;100.00
66381;BME280;53177;52.648;1.214;2023-04-01T16:57:15;100581.97;;;6.47;100.00
66381;BME280;53177;52.648;1.214;2023-04-01T17:00:10;100594.25;;;6.47;100.00
66381;BME280;53177;52.648;1.214;2023-04-01T17:02:51;100596.09;;;6.35;100.00
66381;BME280;53177;52.648;1.214;2023-04-01T17:05:17;100605.63;;;6.44;100.00
66381;BME280;53177;52.648;1.214;2023-04-01T17:08:17;100604.81;;;6.39;100.00
66381;BME280;53177;52.648;1.214;2023-04-01T17:10:50;100606.50;;;6.43;100.00
66381;BME280;53177;52.648;1.214;2023-04-01T17:13:40;100618.81;;;6.38;100.00
66381;BME280;53177;52.648;1.214;2023-04-01T17:21:54;100634.56;;;6.41;100.00
66381;BME280;53177;52.648;1.214;2023-04-01T17:30:43;100653.91;;;6.28;100.00
66381;BME280;53177;52.648;1.214;2023-04-01T17:44:47;100696.78;;;6.28;100.00
66381;BME280;53177;52.648;1.214;2023-04-01T17:52:43;100706.50;;;6.11;100.00
66381;BME280;53177;52.648;1.214;2023-04-01T17:58:44;100718.75;;;6.12;100.00
66381;BME280;53177;52.648;1.214;2023-04-01T18:01:18;100724.88;;;6.11;100.00
66381;BME280;53177;52.648;1.214;2023-04-01T18:04:11;100728.38;;;6.13;100.00
66381;BME280;53177;52.648;1.214;2023-04-01T18:06:59;100742.41;;;6.05;100.00
66381;BME280;53177;52.648;1.214;2023-04-01T18:21:01;100759.03;;;6.07;100.00
66381;BME280;53177;52.648;1.214;2023-04-01T18:23:38;100764.31;;;6.02;100.00
66381;BME280;53177;52.648;1.214;2023-04-01T18:26:18;100772.19;;;6.02;100.00
66381;BME280;53177;52.648;1.214;2023-04-01T18:31:47;100794.03;;;6.00;100.00
66381;BME280;53177;52.648;1.214;2023-04-01T18:34:38;100799.31;;;5.94;100.00
66381;BME280;53177;52.648;1.214;2023-04-01T18:37:28;100811.59;;;5.90;100.00
66381;BME280;53177;52.648;1.214;2023-04-01T18:40:02;100818.56;;;5.90;100.00
66381;BME280;53177;52.648;1.214;2023-04-01T18:43:12;100823.81;;;5.90;100.00
66381;BME280;53177;52.648;1.214;2023-04-01T18:46:00;100829.94;;;5.92;100.00
66381;BME280;53177;52.648;1.214;2023-04-01T18:48:37;100836.94;;;5.88;100.00
66381;BME280;53177;52.648;1.214;2023-04-01T18:51:20;100840.44;;;5.88;100.00
66381;BME280;53177;52.648;1.214;2023-04-01T18:53:57;100842.19;;;5.93;100.00
66381;BME280;53177;52.648;1.214;2023-04-01T18:56:43;100844.81;;;5.94;100.00
66381;BME280;53177;52.648;1.214;2023-04-01T18:59:15;100847.41;;;5.85;100.00
66381;BME280;53177;52.648;1.214;2023-04-01T19:04:52;100861.44;;;5.90;100.00
66381;BME280;53177;52.648;1.214;2023-04-01T19:15:39;100877.16;;;5.85;100.00
66381;BME280;53177;52.648;1.214;2023-04-01T19:20:44;100899.03;;;5.80;100.00
66381;BME280;53177;52.648;1.214;2023-04-01T19:25:59;100898.16;;;5.78;100.00
66381;BME280;53177;52.648;1.214;2023-04-01T19:39:24;100935.75;;;5.66;100.00
66381;BME280;53177;52.648;1.214;2023-04-01T19:45:07;100948.88;;;5.63;100.00
66381;BME280;53177;52.648;1.214;2023-04-01T19:50:40;100954.13;;;5.63;100.00
66381;BME280;53177;52.648;1.214;2023-04-01T20:01:23;100973.38;;;5.58;100.00
66381;BME280;53177;52.648;1.214;2023-04-01T20:03:58;100987.34;;;5.57;100.00
66381;BME280;53177;52.648;1.214;2023-04-01T20:11:55;100996.94;;;5.55;100.00
66381;BME280;53177;52.648;1.214;2023-04-01T20:17:01;101012.72;;;5.58;100.00
66381;BME280;53177;52.648;1.214;2023-04-01T20:19:34;101014.44;;;5.60;100.00
66381;BME280;53177;52.648;1.214;2023-04-01T20:22:00;101020.56;;;5.61;100.00
66381;BME280;53177;52.648;1.214;2023-04-01T20:24:34;101019.69;;;5.56;100.00
66381;BME280;53177;52.648;1.214;2023-04-01T20:29:56;101038.03;;;5.53;100.00
66381;BME280;53177;52.648;1.214;2023-04-01T20:32:45;101043.28;;;5.56;100.00
66381;BME280;53177;52.648;1.214;2023-04-01T20:41:11;101054.69;;;5.58;100.00
66381;BME280;53177;52.648;1.214;2023-04-01T20:44:02;101068.63;;;5.58;100.00
66381;BME280;53177;52.648;1.214;2023-04-01T20:46:40;101070.41;;;5.56;100.00
66381;BME280;53177;52.648;1.214;2023-04-01T20:49:20;101077.38;;;5.59;100.00
66381;BME280;53177;52.648;1.214;2023-04-01T20:54:55;101086.13;;;5.53;100.00
66381;BME280;53177;52.648;1.214;2023-04-01T20:57:35;101089.59;;;5.48;100.00
66381;BME280;53177;52.648;1.214;2023-04-01T21:02:47;101096.63;;;5.50;100.00
66381;BME280;53177;52.648;1.214;2023-04-01T21:11:18;101106.22;;;5.50;100.00
66381;BME280;53177;52.648;1.214;2023-04-01T21:25:27;101119.34;;;5.51;100.00
66381;BME280;53177;52.648;1.214;2023-04-01T21:28:08;101122.84;;;5.50;100.00
66381;BME280;53177;52.648;1.214;2023-04-01T21:39:22;101133.31;;;5.52;100.00
66381;BME280;53177;52.648;1.214;2023-04-01T21:45:11;101161.31;;;5.53;100.00
66381;BME280;53177;52.648;1.214;2023-04-01T21:56:21;101171.81;;;5.50;100.00
66381;BME280;53177;52.648;1.214;2023-04-01T22:07:50;101194.50;;;5.48;100.00
66381;BME280;53177;52.648;1.214;2023-04-01T22:10:29;101199.72;;;5.45;100.00